KARA Airport (Acadiana Rgnl) Information

FAA: ARA - ICAO: KARA

KARA Airport Location

State Louisiana
County Iberia
City New Iberia
KARA Airport is 4 miles northwest of New Iberia, LA.
Latitude 30-02-15.9300N
Longitude 091-53-02.0260W
Elevation 24ft

KARA Airport METARs

METAR KARA 072053Z 19011KT 10SM SCT026 BKN032 26/19 A3021 RMK AO2 SLP228 T02610194 56013
Altimeter 30.21"
Temperature 26.1°C (79.0°F)
Wind 190° at 11KT
Clouds scattered at 2,600ft broken at 3,200ft
Visibility 10.0mi
Time observed: 2022-12-07T20:53:00Z

KARA Airport Details

Status Operational
Activation February 1944
Ownership Public
Usage Public
Chart HOUSTON
ATC on-site Yes
Beacon schedule sunset-sunrise
Beacon color clear green

KARA Airport Contacts

Owner IBERIA PARISH GOVERMENT
Owner address 300 IBERIA ST, NEW IBERIA, LA 70560
Owner phone 337-365-8246
Manager PAUL L. CORDE
Manager address 135 HWY 402, NAPOLEONVILLE, LA 70390
Manager phone (985) 369-4243

KARA Airport (Acadiana Rgnl) Radio Frequencies

KARA (Airport) Radio Frequencies

UNICOM 122.95
Common traffic advisory frequency (CTAF) 125